Pescara - LIBP

Metar : METAR LIBP 151350Z 05007KT 020V090 CAVOK 26/16 Q1023=

Taf : TAF LIBP 151100Z 1512/1612 05010KT CAVOK BECMG 1516/1518 VRB04KT BECMG 1610/1612 04010KT=

 Scopri come leggere i bollettini codificati...


Storico

LIBP 151350Z 05007KT 020V090 CAVOK 26/16 Q1023
LIBP 151250Z 05008KT CAVOK 27/16 Q1023
LIBP 151150Z 03007KT 350V060 CAVOK 26/17 Q1024
LIBP 151050Z 05008KT 020V080 CAVOK 26/17 Q1024
LIBP 150950Z 04008KT CAVOK 26/16 Q1025
LIBP 150850Z VRB02KT CAVOK 26/14 Q1025
LIBP 150750Z 23005KT 200V260 CAVOK 22/14 Q1025
LIBP 150650Z 23006KT CAVOK 20/14 Q1026
LIBP 150550Z 24006KT CAVOK 17/13 Q1026
LIBP 150450Z AUTO 23004KT 9999 NCD 15/13 Q1025
LIBP 150350Z AUTO 20005KT 9999 NCD 14/13 Q1025
LIBP 150250Z AUTO 23005KT 9999 NCD 15/13 Q1025
LIBP 150150Z AUTO 25004KT 9999 NCD 16/13 Q1025
LIBP 150050Z AUTO 25004KT 9999 NCD 17/14 Q1025
LIBP 142350Z AUTO 25005KT 9999 NCD 17/14 Q1025
LIBP 142250Z AUTO 24005KT 9999 NCD 17/15 Q1026
LIBP 142150Z AUTO 23004KT 9999 NCD 18/15 Q1026
LIBP 142050Z 22004KT CAVOK 18/16 Q1026
LIBP 141950Z 22004KT CAVOK 18/16 Q1026
LIBP 141850Z 24003KT CAVOK 22/17 Q1026
LIBP 141750Z VRB02KT CAVOK 23/17 Q1025
LIBP 141650Z 34004KT 310V030 CAVOK 24/16 Q1025
LIBP 141550Z 02005KT 330V050 CAVOK 26/16 Q1025
LIBP 141450Z 02007KT 340V050 CAVOK 26/17 Q1026
LIBP 141350Z 03009KT 360V060 CAVOK 27/16 Q1026
LIBP 141250Z 01008KT 340V040 CAVOK 27/15 Q1026
LIBP 141150Z 01009KT 320V050 CAVOK 27/17 Q1027
LIBP 140950Z 01009KT 330V030 CAVOK 27/15 Q1027
LIBP 140850Z 34004KT 290V040 CAVOK 26/17 Q1027
LIBP 140750Z 22005KT 190V250 CAVOK 23/15 Q1028
LIBP 140650Z 23006KT CAVOK 20/15 Q1027
LIBP 140550Z 24005KT CAVOK 17/14 Q1027
LIBP 140450Z AUTO 24006KT 9999 NCD 16/14 Q1027
LIBP 140350Z AUTO 24005KT 9999 NCD 16/14 Q1027
LIBP 140250Z AUTO 23004KT 9999 NCD 15/14 Q1027
LIBP 140150Z AUTO 23004KT 9999 NCD 16/15 Q1027
LIBP 140050Z AUTO 21005KT 9999 NCD 16/14 Q1027
LIBP 132350Z AUTO 22004KT 9999 NCD 17/15 Q1027
LIBP 132250Z AUTO 22004KT 9999 NCD 17/15 Q1028
LIBP 132150Z AUTO 22004KT 9999 NCD 18/15 Q1028
LIBP 132050Z 25004KT CAVOK 19/16 Q1028
LIBP 131950Z 22004KT CAVOK 20/17 Q1028
LIBP 131850Z VRB01KT CAVOK 20/17 Q1027
LIBP 131750Z 29003KT CAVOK 23/17 Q1027
LIBP 131650Z VRB02KT CAVOK 25/17 Q1027
LIBP 131550Z 03004KT 350V060 CAVOK 26/18 Q1027
LIBP 131450Z 03006KT 360V060 CAVOK 26/18 Q1027
LIBP 131350Z 04006KT 350V070 CAVOK 26/18 Q1028
LIBP 131250Z 02009KT CAVOK 26/19 Q1028
LIBP 131150Z 03010KT CAVOK 26/18 Q1028
LIBP 131050Z 02009KT 340V060 CAVOK 26/19 Q1029
LIBP 130950Z 03009KT CAVOK 26/17 Q1029
LIBP 130850Z 06003KT 360V150 CAVOK 26/15 Q1029
LIBP 130750Z 22006KT 190V250 CAVOK 23/15 Q1029
LIBP 130650Z 23005KT CAVOK 20/15 Q1029
LIBP 130554Z 23005KT CAVOK 18/14 Q1029
LIBP 130450Z AUTO 22004KT 9999 NCD 15/13 Q1029
LIBP 130350Z AUTO 23003KT 9999 NCD 16/13 Q1029
LIBP 130250Z AUTO 23006KT 9999 BKN067/// 18/14 Q1028
LIBP 130150Z AUTO 22003KT 190V250 9999 BKN064/// 18/15 Q1028
LIBP 130050Z AUTO 24005KT 9999 NCD 17/15 Q1028
LIBP 122350Z AUTO 24005KT 9999 NCD 18/15 Q1028
LIBP 122250Z AUTO 23005KT 9999 NCD 18/16 Q1028
LIBP 122150Z AUTO 22005KT 9999 NCD 18/15 Q1028
LIBP 122050Z 22004KT CAVOK 20/16 Q1028
LIBP 121950Z 20005KT CAVOK 20/17 Q1028
LIBP 121850Z 25005KT CAVOK 23/18 Q1028
LIBP 121750Z 33007KT 300V360 CAVOK 24/17 Q1027
LIBP 121650Z 34007KT 290V020 CAVOK 25/17 Q1027
LIBP 121550Z 35010KT 300V010 CAVOK 25/18 Q1026
LIBP 121450Z 01011KT 330V040 CAVOK 26/18 Q1026
LIBP 121350Z 01011KT 340V060 CAVOK 26/18 Q1026
LIBP 121250Z 03011KT 340V060 CAVOK 27/17 Q1026
LIBP 121150Z 02007KT 340V050 CAVOK 27/15 Q1026
LIBP 120850Z VRB03KT CAVOK 25/13 Q1026
LIBP 120750Z 22005KT 200V260 CAVOK 23/15 Q1026
LIBP 120650Z 23005KT CAVOK 20/16 Q1025
LIBP 120550Z 23005KT CAVOK 16/15 Q1025
LIBP 120450Z AUTO 20005KT 9999 NCD 14/13 Q1024
LIBP 120350Z AUTO 22004KT 9999 NCD 15/13 Q1024
LIBP 120250Z AUTO 22005KT 9999 NCD 16/15 Q1024
LIBP 120150Z AUTO 24004KT 9999 NCD 17/16 Q1023
LIBP 120050Z AUTO 23005KT CAVOK 17/15 Q1023
LIBP 112150Z 24004KT CAVOK 20/17 Q1023
LIBP 112050Z 22005KT 9999 SCT040 21/18 Q1023

Informazioni elaborate utilizzando, tra l’altro, dati e prodotti del Servizio Meteorologico dell’Aeronautica Militare pubblicati sul sito www.meteoam.it e della National Oceanic and Atmospheric Administration (NOAA)

Ultimi caricamenti...


MM81628 (3-56) Marina Militare NH-90

 


MM81628 Marina Militare NH-90

 


MM81635 (2-20) Marina Militare AgustaWestland EH-101

Questo sito non utilizza cookie di profilazione. Il sito utilizza cookie tecnici, di analisi anonima di prima parte e di terze parti per servizi di social network.